Latest Weather Observations for Neptune Island

IDS60801

Issued at 6:31 am CST Tuesday 26 May 2015 (issued every 30 minutes, with the page automatically refreshed every 10 minutes)

About weather observations | Map of weather stations | Latest weather observations for SA | Other Formats
Station Details ID: 018115 Name: NEPTUNE ISLAND Lat: -35.34 Lon: 136.12 Height: 32.0 m
Data from the previous 72 hours. | See also: Recent months at Neptune Island
Date/Time
CST
Temp
°C
App
Temp
°C
Dew
Point
Rel
Hum
%
Delta-T
°C
Wind Press
QNH
hPa
Press
MSL
hPa
Rain
since 9 am
mm
Dir
 
Spd
km/h
Gust
km/h
Spd
kts
Gust
kts
26/06:30am 15.8 12.8 12.5 81 1.8 NNE 20 22 11 12 1023.5 1023.4 0.0
26/06:00am 15.8 12.8 12.4 80 1.9 NNE 20 24 11 13 1023.4 1023.3 0.0
26/05:30am 15.7 12.7 11.9 78 2.1 NE 19 20 10 11 1023.5 1023.4 0.0
26/05:00am 15.6 12.6 12.0 79 2.0 NNE 19 20 10 11 1023.6 1023.5 0.0
26/04:30am 15.4 12.5 12.2 81 1.7 NNE 19 22 10 12 1023.7 1023.6 0.0
26/04:00am 15.5 11.9 11.9 79 2.0 NNE 22 26 12 14 1023.8 1023.7 0.0
26/03:30am 15.6 12.2 12.4 81 1.7 NNE 22 26 12 14 1024.0 1023.9 0.0
26/03:00am 15.8 11.6 12.4 80 1.9 NNE 26 28 14 15 1024.3 1024.2 0.0
26/02:30am 15.7 11.3 11.7 77 2.2 NNE 26 30 14 16 1024.4 1024.3 0.0
26/02:00am 15.8 11.4 11.8 77 2.2 NNE 26 30 14 16 1024.6 1024.5 0.0
26/01:30am 15.8 11.4 11.6 76 2.3 NE 26 32 14 17 1024.7 1024.6 0.0
26/01:00am 15.8 12.3 12.2 79 2.0 NE 22 28 12 15 1024.9 1024.8 0.0
26/12:30am 15.7 13.0 11.7 77 2.2 NE 17 26 9 14 1025.1 1025.0 0.0
26/12:00am 15.7 12.9 12.6 82 1.7 NE 19 22 10 12 1025.2 1025.1 0.0
 
Date/Time
CST
Temp
°C
App
Temp
°C
Dew
Point
Rel
Hum
%
Delta-T
°C
Wind Press
QNH
hPa
Press
MSL
hPa
Rain
since 9 am
mm
Dir
 
Spd
km/h
Gust
km/h
Spd
kts
Gust
kts
25/11:30pm 15.8 12.8 12.5 81 1.8 NE 20 24 11 13 1025.5 1025.4 0.0
25/11:00pm 16.0 12.9 12.2 78 2.1 ENE 20 24 11 13 1025.6 1025.5 0.0
25/10:30pm 15.9 12.2 11.5 75 2.4 ENE 22 26 12 14 1025.8 1025.7 0.0
25/10:00pm 15.9 11.9 11.9 77 2.2 ENE 24 26 13 14 1025.9 1025.8 0.0
25/09:30pm 16.0 12.6 12.6 80 1.9 ENE 22 26 12 14 1026.1 1026.1 0.0
25/09:00pm 16.0 12.6 12.6 80 1.9 ENE 22 24 12 13 1026.2 1026.2 0.0
25/08:30pm 16.1 12.6 12.3 78 2.1 ENE 22 26 12 14 1026.1 1026.1 0.0
25/08:00pm 16.1 12.7 12.5 79 2.0 ENE 22 26 12 14 1026.3 1026.3 0.0
25/07:30pm 16.1 12.4 12.8 81 1.8 ENE 24 28 13 15 1026.0 1026.0 0.0
25/07:00pm 16.2 12.9 12.7 80 1.9 ENE 22 26 12 14 1025.7 1025.6 0.0
25/06:30pm 16.1 12.6 12.3 78 2.1 ENE 22 26 12 14 1025.6 1025.5 0.0
25/06:00pm 16.1 13.0 12.1 77 2.2 ENE 20 22 11 12 1025.7 1025.6 0.0
25/05:30pm 16.0 12.7 11.6 75 2.4 E 20 24 11 13 1025.1 1025.0 0.0
25/05:00pm 16.2 13.1 12.2 77 2.2 E 20 22 11 12 1025.3 1025.2 0.0
25/04:30pm 16.6 14.1 12.4 76 2.3 E 17 19 9 10 1025.4 1025.3 0.0
25/04:00pm 16.7 13.9 11.4 71 2.9 E 17 20 9 11 1025.2 1025.1 0.0
25/03:30pm 17.0 14.3 11.7 71 2.9 E 17 19 9 10 1024.9 1024.8 0.0
25/03:00pm 16.9 14.9 11.6 71 2.9 ENE 13 17 7 9 1025.0 1024.9 0.0
25/02:30pm 17.9 16.8 12.1 69 3.2 NE 9 15 5 8 1025.0 1024.9 0.0
25/02:00pm 17.3 15.4 11.8 70 3.0 NNE 13 15 7 8 1025.2 1025.1 0.0
25/01:30pm 17.4 15.1 11.9 70 3.0 NNE 15 19 8 10 1025.3 1025.2 0.0
25/01:00pm 18.1 15.5 13.2 73 2.8 NE 19 20 10 11 1025.6 1025.5 0.0
25/12:30pm 17.8 15.4 12.7 72 2.8 NE 17 22 9 12 1025.9 1025.8 0.0
25/12:00pm 18.1 15.7 12.8 71 3.0 NE 17 22 9 12 1026.2 1026.2 0.0
25/11:30am 17.9 15.0 13.0 73 2.7 ENE 20 24 11 13 1026.8 1026.8 0.0
25/11:00am 17.4 14.3 12.1 71 2.9 ENE 20 26 11 14 1027.1 1027.1 0.0
25/10:30am 17.8 14.9 12.3 70 3.0 NE 19 26 10 14 1027.4 1027.4 0.0
25/10:00am 17.3 15.0 11.8 70 3.0 NE 15 20 8 11 1027.6 1027.6 0.0
25/09:30am 17.2 15.3 11.9 71 2.9 NE 13 17 7 9 1027.6 1027.6 0.0
25/09:00am 16.7 14.4 11.6 72 2.8 NE 15 19 8 10 1027.7 1027.7 0.0
25/08:30am 15.9 13.9 11.5 75 2.4 NE 13 19 7 10 1027.6 1027.6 0.0
25/08:00am 15.7 13.4 11.9 78 2.1 NE 15 19 8 10 1027.6 1027.6 0.0
25/07:30am 15.4 12.6 11.4 77 2.1 NE 17 20 9 11 1027.3 1027.3 0.0
25/07:00am 15.4 12.4 10.8 74 2.4 NE 17 24 9 13 1027.1 1027.1 0.0
25/06:30am 15.6 12.8 11.2 75 2.3 NE 17 24 9 13 1027.0 1027.0 0.0
25/06:00am 15.6 12.1 11.0 74 2.4 NE 20 24 11 13 1026.7 1026.7 0.0
25/05:30am 15.6 12.4 11.2 75 2.3 NNE 19 24 10 13 1026.7 1026.7 0.0
25/05:00am 15.4 12.3 11.6 78 2.0 NE 19 20 10 11 1026.5 1026.5 0.0
25/04:30am 15.3 12.2 12.1 81 1.7 NNE 20 22 11 12 1026.5 1026.5 0.0
25/04:00am 15.1 11.7 12.4 84 1.5 NNE 22 26 12 14 1026.5 1026.5 0.0
25/03:30am 15.3 11.6 12.8 85 1.4 NNE 24 28 13 15 1026.5 1026.5 0.0
25/03:00am 15.5 11.8 12.8 84 1.5 NNE 24 28 13 15 1026.7 1026.7 0.0
25/02:30am 15.6 12.5 12.2 80 1.8 NE 20 26 11 14 1026.7 1026.7 0.0
25/02:00am 15.6 12.6 11.8 78 2.1 NE 19 22 10 12 1026.8 1026.8 0.0
25/01:30am 15.7 13.1 12.1 79 2.0 NE 17 22 9 12 1026.9 1026.9 0.0
25/01:00am 15.4 13.0 11.4 77 2.1 NE 15 19 8 10 1027.0 1027.0 0.0
25/12:30am 15.0 12.9 11.2 78 2.0 NNE 13 15 7 8 1027.1 1027.1 0.0
25/12:00am 14.9 13.2 11.1 78 2.0 NNE 11 13 6 7 1027.2 1027.2 0.0
 
Date/Time
CST
Temp
°C
App
Temp
°C
Dew
Point
Rel
Hum
%
Delta-T
°C
Wind Press
QNH
hPa
Press
MSL
hPa
Rain
since 9 am
mm
Dir
 
Spd
km/h
Gust
km/h
Spd
kts
Gust
kts
24/11:30pm 15.1 13.0 11.1 77 2.1 NNE 13 15 7 8 1027.2 1027.2 0.0
24/11:00pm 15.0 12.8 10.8 76 2.2 NNE 13 15 7 8 1027.2 1027.2 0.0
24/10:30pm 15.0 11.9 10.4 74 2.4 NNE 17 17 9 9 1027.1 1027.1 0.0
24/10:00pm 14.5 12.1 9.9 74 2.4 N 13 20 7 11 1027.2 1027.2 0.0
24/09:30pm 15.2 11.7 10.2 72 2.6 NW 19 22 10 12 1027.4 1027.4 0.0
24/09:00pm 15.3 11.8 10.3 72 2.6 NNW 19 24 10 13 1027.2 1027.2 0.0
24/08:30pm 15.2 13.5 9.8 70 2.8 N 9 13 5 7 1026.8 1026.8 0.0
24/08:00pm 15.4 11.7 10.2 71 2.7 N 20 24 11 13 1026.8 1026.8 0.0
24/07:30pm 15.2 13.2 10.0 71 2.7 NNW 11 13 6 7 1026.5 1026.5 0.0
24/07:00pm 15.4 14.3 10.8 74 2.4 NNW 7 11 4 6 1025.9 1025.8 0.0
24/06:30pm 15.4 12.2 11.2 76 2.2 N 19 22 10 12 1026.6 1026.6 0.0
24/06:00pm 15.6 12.3 11.6 77 2.1 N 20 24 11 13 1026.4 1026.4 0.0
24/05:30pm 15.5 12.2 11.7 78 2.0 N 20 24 11 13 1026.2 1026.2 0.0
24/05:00pm 15.7 12.1 11.7 77 2.2 N 22 28 12 15 1026.2 1026.2 0.0
24/04:30pm 15.9 12.1 11.3 74 2.5 N 22 26 12 14 1026.0 1026.0 0.0
24/04:00pm 16.0 12.3 11.6 75 2.4 N 22 24 12 13 1025.8 1025.7 0.0
24/03:30pm 16.1 13.0 11.5 74 2.5 N 19 22 10 12 1025.7 1025.6 0.0
24/03:00pm 16.0 12.7 11.6 75 2.4 N 20 22 11 12 1025.5 1025.4 0.0
24/02:30pm 16.1 12.5 11.7 75 2.4 N 22 24 12 13 1025.4 1025.3 0.0
24/02:00pm 15.9 12.6 11.5 75 2.4 N 20 24 11 13 1025.6 1025.5 0.0
24/01:30pm 15.8 12.0 11.0 73 2.6 N 22 26 12 14 1025.8 1025.7 0.0
24/01:00pm 15.9 12.0 10.9 72 2.7 N 22 28 12 15 1026.1 1026.1 0.0
24/12:30pm 15.8 11.2 11.0 73 2.6 N 26 30 14 16 1026.4 1026.4 0.0
24/12:00pm 15.5 10.4 10.5 72 2.6 N 28 32 15 17 1026.6 1026.6 0.0
24/11:30am 15.8 10.1 11.0 73 2.5 N 32 37 17 20 1026.8 1026.8 0.0
24/11:00am 15.8 9.7 10.6 71 2.8 N 33 39 18 21 1026.9 1026.9 0.0
24/10:30am 15.9 10.2 11.3 74 2.5 N 32 35 17 19 1026.7 1026.7 0.0
24/10:00am 15.7 10.2 11.7 77 2.2 N 32 35 17 19 1026.6 1026.6 0.0
24/09:30am 15.5 9.9 12.1 80 1.8 NNE 33 35 18 19 1026.6 1026.6 0.0
24/09:00am 15.4 10.0 12.2 81 1.7 NNE 32 35 17 19 1026.3 1026.3 0.0
24/08:30am 15.3 9.9 12.1 81 1.7 NNE 32 35 17 19 1026.2 1026.2 0.0
24/08:00am 15.3 10.0 12.4 83 1.6 NNE 32 35 17 19 1026.1 1026.1 0.0
24/07:30am 15.3 9.9 12.1 81 1.7 NNE 32 35 17 19 1026.1 1026.1 0.0
24/07:00am 15.2 10.1 12.0 81 1.7 NNE 30 33 16 18 1026.0 1026.0 0.0
24/06:30am 15.2 10.2 12.1 82 1.7 N 30 33 16 18 1025.9 1025.8 0.0
24/06:00am 15.2 9.4 11.6 79 1.9 N 33 39 18 21 1025.6 1025.5 0.0
24/05:30am 15.2 9.5 11.8 80 1.8 NNE 33 37 18 20 1025.5 1025.4 0.0
24/05:00am 15.2 9.6 12.0 81 1.7 NNE 33 39 18 21 1025.3 1025.2 0.0
24/04:30am 15.1 9.6 11.7 80 1.8 NNE 32 35 17 19 1025.3 1025.2 0.0
24/04:00am 15.0 9.4 11.6 80 1.8 NNE 32 35 17 19 1025.1 1025.0 0.0
24/03:30am 14.9 9.3 11.5 80 1.8 NNE 32 35 17 19 1025.1 1025.0 0.0
24/03:00am 14.9 9.4 11.7 81 1.7 NNE 32 37 17 20 1025.3 1025.2 0.0
24/02:30am 14.7 9.4 11.3 80 1.8 NNE 30 33 16 18 1025.5 1025.4 0.0
24/02:00am 14.9 11.0 12.2 84 1.5 NE 24 32 13 17 1025.8 1025.7 0.0
24/01:30am 14.8 10.8 11.9 83 1.6 NE 24 32 13 17 1025.9 1025.8 0.0
24/01:00am 14.5 10.9 12.0 85 1.4 NE 22 30 12 16 1026.0 1026.0 0.0
24/12:30am 14.4 11.2 11.9 85 1.3 NE 20 30 11 16 1026.4 1026.4 0.0
24/12:00am 14.3 10.2 11.3 82 1.6 NE 24 32 13 17 1026.6 1026.6 0.0
 
Date/Time
CST
Temp
°C
App
Temp
°C
Dew
Point
Rel
Hum
%
Delta-T
°C
Wind Press
QNH
hPa
Press
MSL
hPa
Rain
since 9 am
mm
Dir
 
Spd
km/h
Gust
km/h
Spd
kts
Gust
kts
23/11:30pm 14.4 10.9 10.8 79 1.9 NE 20 28 11 15 1026.7 1026.7 0.0
23/11:00pm 14.4 10.2 11.0 80 1.8 ENE 24 30 13 16 1026.8 1026.8 0.0
23/10:30pm 14.3 9.3 10.9 80 1.8 ENE 28 32 15 17 1027.1 1027.1 0.0
23/10:00pm 14.5 9.9 10.9 79 1.9 ENE 26 30 14 16 1027.3 1027.3 0.0
23/09:30pm 14.6 10.8 9.8 73 2.5 ENE 20 26 11 14 1027.5 1027.5 0.0
23/09:00pm 14.3 10.9 9.3 72 2.5 ENE 17 20 9 11 1027.5 1027.5 0.0
23/08:30pm 14.1 10.8 9.5 74 2.3 ENE 17 20 9 11 1027.7 1027.7 0.0
23/08:00pm 14.1 10.4 9.5 74 2.4 ENE 19 24 10 13 1027.6 1027.6 0.0
23/07:30pm 14.0 10.4 9.8 76 2.2 ENE 19 22 10 12 1027.6 1027.6 0.0
23/07:00pm 13.9 10.7 9.9 77 2.1 ENE 17 20 9 11 1027.7 1027.7 0.0
23/06:30pm 13.7 10.8 9.7 77 2.0 NE 15 20 8 11 1027.8 1027.8 0.0
23/06:00pm 13.8 10.1 10.0 78 2.0 ENE 20 24 11 13 1027.3 1027.3 0.0
23/05:30pm 13.9 10.2 10.1 78 2.0 ENE 20 26 11 14 1027.1 1027.1 0.0
23/05:00pm 13.9 10.3 9.9 77 2.1 ENE 19 24 10 13 1027.2 1027.2 0.0
23/04:30pm 13.9 10.3 9.7 76 2.1 ENE 19 24 10 13 1027.5 1027.5 0.0
23/04:00pm 13.9 10.1 9.7 76 2.2 ENE 20 28 11 15 1027.5 1027.5 0.0
23/03:30pm 13.8 10.1 9.3 74 2.3 ENE 19 24 10 13 1027.9 1027.9 0.0
23/03:00pm 13.8 9.8 9.0 73 2.4 ENE 20 26 11 14 1027.9 1027.9 0.0
23/02:30pm 14.0 11.4 9.2 73 2.4 NE 13 19 7 10 1028.3 1028.3 0.0
23/02:00pm 13.7 9.8 8.5 71 2.6 ENE 19 24 10 13 1028.5 1028.5 0.0
23/01:30pm 14.0 9.5 8.4 69 2.8 ENE 22 28 12 15 1028.6 1028.6 0.0
23/01:00pm 14.2 9.4 9.0 71 2.6 NE 24 32 13 17 1028.7 1028.7 0.0
23/12:30pm 14.3 10.1 9.9 75 2.3 NE 22 32 12 17 1029.0 1029.0 0.0
23/12:00pm 14.0 9.8 9.6 75 2.2 NE 22 32 12 17 1029.5 1029.5 0.0
23/11:30am 14.4 10.6 9.8 74 2.4 ENE 20 26 11 14 1029.9 1029.9 0.0
23/11:00am 15.1 11.2 8.6 65 3.3 NE 19 28 10 15 1030.2 1030.2 0.0
23/10:30am 15.0 11.8 8.5 65 3.3 NE 15 22 8 12 1030.3 1030.3 0.0
23/10:00am 14.0 10.0 8.2 68 2.9 ENE 19 22 10 12 1030.5 1030.5 0.0
23/09:30am 14.1 10.1 8.3 68 2.9 ENE 19 24 10 13 1030.7 1030.7 0.0
23/09:00am 13.6 9.3 8.0 69 2.8 ENE 20 26 11 14 1030.8 1030.8 0.0
23/08:30am 13.5 9.5 8.4 71 2.5 NE 19 24 10 13 1030.8 1030.8 0.0
23/08:00am 12.8 8.7 7.9 72 2.4 ENE 19 24 10 13 1030.7 1030.7 0.0
23/07:30am 12.7 9.3 7.6 71 2.5 NE 15 20 8 11 1030.7 1030.7 0.0
23/07:00am 12.8 9.4 7.7 71 2.5 NE 15 19 8 10 1030.6 1030.6 0.0

Other Formats:

Comma delimited format used in spreadsheet applications
http://www.bom.gov.au/fwo/IDS60801/IDS60801.94804.axf

JavaScript Object Notation format (JSON) in row-major order
http://www.bom.gov.au/fwo/IDS60801/IDS60801.94804.json